Oreana, Nevada
Current Conditions -  °F | °C
As of 7:53 PM on Saturday 22 Nov 2014 (Local Time) from KLOL Reporting Station
Clear Clear  
Wind Chill: 32°   Ceiling: Unl
Heat Index: 40°   Visibility: 10mi
Dew Point: 27°   Wind: 14mph
Humidity: 60%   Direction: 300°WNW
Pressure: 30.15"   Gusts: NA
Location:  40.3545°N, 118.628°W
Report Text: KLOL 230353Z AUTO 30012KT 10SM CLR 04/M03 A3015 RMK AO2 SLP211 T00441028
Loading
Personal Weather Stations






























Interactive Weather Map New forecast layout! Learn more

10-Day Weather Forecast

Advertisements
Track Severe Weather on mobile